createdAt,value
2023-01-11T00:02:00.567Z,5.91
2023-01-11T00:04:30.741Z,5.88
2023-01-11T00:06:58.630Z,5.93
2023-01-11T00:09:51.840Z,5.94
2023-01-11T00:16:17.623Z,5.99
2023-01-11T00:18:44.663Z,6.01
2023-01-11T00:21:26.968Z,6.00
2023-01-11T00:29:47.403Z,6.07
2023-01-11T00:32:17.957Z,6.07
2023-01-11T00:34:57.191Z,6.10
2023-01-11T00:37:38.897Z,6.15
2023-01-11T00:40:24.201Z,6.24
2023-01-11T00:43:14.601Z,6.28
2023-01-11T00:46:08.044Z,6.31
2023-01-11T00:48:39.521Z,6.33
2023-01-11T00:51:10.796Z,6.38
2023-01-11T00:53:38.747Z,6.40
2023-01-11T00:56:09.596Z,6.43
2023-01-11T00:58:38.155Z,6.44
2023-01-11T01:01:08.717Z,6.51
2023-01-11T01:03:35.964Z,6.56
2023-01-11T01:06:03.335Z,6.58
2023-01-11T01:08:30.052Z,6.56
2023-01-11T01:10:58.699Z,6.59
2023-01-11T01:13:47.408Z,6.63
2023-01-11T01:16:14.972Z,6.62
2023-01-11T01:18:44.792Z,6.62
2023-01-11T01:21:12.325Z,6.61
2023-01-11T01:23:41.829Z,6.57
2023-01-11T01:26:10.171Z,6.49
2023-01-11T01:28:37.962Z,6.39
2023-01-11T01:31:05.500Z,6.39
2023-01-11T01:33:33.128Z,6.39
2023-01-11T01:36:02.142Z,6.41
2023-01-11T01:46:49.877Z,6.49
2023-01-11T01:49:32.786Z,6.49
2023-01-11T01:52:02.212Z,6.58
2023-01-11T01:54:34.476Z,6.59
2023-01-11T01:57:06.663Z,6.64
2023-01-11T01:59:33.938Z,6.65
2023-01-11T02:02:01.699Z,6.63
2023-01-11T02:04:37.819Z,6.62
2023-01-11T02:07:18.700Z,6.66
2023-01-11T02:10:23.643Z,6.76
2023-01-11T02:13:06.578Z,6.78
2023-01-11T02:15:33.617Z,6.81
2023-01-11T02:21:18.516Z,6.87
2023-01-11T02:23:57.925Z,6.94
2023-01-11T02:26:41.260Z,6.97
2023-01-11T02:29:45.543Z,6.96
2023-01-11T02:32:34.441Z,7.02
2023-01-11T02:35:39.328Z,7.03
2023-01-11T02:38:16.033Z,7.04
2023-01-11T02:41:09.330Z,7.05
2023-01-11T02:44:14.177Z,7.08
2023-01-11T02:46:54.725Z,7.11
2023-01-11T02:49:26.943Z,7.15
2023-01-11T02:51:56.965Z,7.15
2023-01-11T02:54:24.654Z,7.16
2023-01-11T02:56:55.615Z,7.14
2023-01-11T02:59:32.634Z,7.13
2023-01-11T03:02:04.577Z,7.17
2023-01-11T03:04:56.007Z,7.22
2023-01-11T03:07:35.667Z,7.29
2023-01-11T03:10:26.171Z,7.32
2023-01-11T03:16:24.018Z,7.41
2023-01-11T03:19:36.269Z,7.39
2023-01-11T03:22:13.219Z,7.46
2023-01-11T03:28:22.810Z,7.53
2023-01-11T03:31:05.935Z,7.53
2023-01-11T03:34:23.146Z,7.53
2023-01-11T03:37:06.232Z,7.55
2023-01-11T03:39:44.657Z,7.55
2023-01-11T03:42:14.276Z,7.59
2023-01-11T03:44:44.477Z,7.60
2023-01-11T03:47:13.582Z,7.61
2023-01-11T03:50:16.285Z,7.67
2023-01-11T03:52:49.098Z,7.71
2023-01-11T04:01:12.882Z,7.84
2023-01-11T04:03:52.624Z,7.86
2023-01-11T04:06:42.802Z,7.88
2023-01-11T04:19:25.758Z,8.01
2023-01-11T04:28:05.256Z,7.86
2023-01-11T04:31:06.516Z,7.87
2023-01-11T04:33:36.434Z,7.85
2023-01-11T04:40:31.209Z,7.82
2023-01-11T04:43:34.275Z,7.83
2023-01-11T05:08:14.853Z,7.66
2023-01-11T05:20:23.149Z,7.80
2023-01-11T05:22:56.102Z,7.81
2023-01-11T05:26:12.619Z,7.83
2023-01-11T07:45:56.198Z,8.47
2023-01-11T07:48:52.156Z,8.51
2023-01-11T07:51:20.540Z,8.55
2023-01-11T07:53:47.157Z,8.59
2023-01-11T07:56:13.585Z,8.63
2023-01-11T07:58:39.986Z,8.67
2023-01-11T08:01:06.550Z,8.66
2023-01-11T08:03:33.237Z,8.71
2023-01-11T08:05:59.746Z,8.73
2023-01-11T08:08:26.211Z,8.71
2023-01-11T08:11:12.637Z,8.72
2023-01-11T08:13:57.776Z,8.76
2023-01-11T08:16:24.214Z,8.78
2023-01-11T08:18:52.370Z,8.74
2023-01-11T08:21:21.080Z,8.72
2023-01-11T08:23:47.602Z,8.68
2023-01-11T08:26:17.028Z,8.67
2023-01-11T08:28:44.333Z,8.63
2023-01-11T08:31:10.865Z,8.62
2023-01-11T08:33:37.346Z,8.66
2023-01-11T08:36:08.935Z,8.62
2023-01-11T08:38:35.502Z,8.64
2023-01-11T08:41:02.985Z,8.65
2023-01-11T08:43:32.229Z,8.68
2023-01-11T08:45:58.641Z,8.73
2023-01-11T08:48:25.105Z,8.70
2023-01-11T08:50:51.872Z,8.66
2023-01-11T08:53:20.304Z,8.71
2023-01-11T08:55:50.757Z,8.69
2023-01-11T08:58:17.287Z,8.71
2023-01-11T09:00:43.778Z,8.68
2023-01-11T09:03:13.229Z,8.70
2023-01-11T09:05:40.367Z,8.70
2023-01-11T09:08:07.978Z,8.71
2023-01-11T09:10:34.803Z,8.75
2023-01-11T09:13:01.469Z,8.78
2023-01-11T09:15:28.365Z,8.79
2023-01-11T09:17:55.629Z,8.82
2023-01-11T09:20:22.513Z,8.84
2023-01-11T09:22:53.097Z,8.85
2023-01-11T09:25:20.365Z,8.95
2023-01-11T09:27:48.667Z,8.97
2023-01-11T09:30:17.451Z,9.01
2023-01-11T09:32:45.375Z,9.02
2023-01-11T09:35:11.858Z,9.03
2023-01-11T09:37:41.210Z,9.00
2023-01-11T09:40:12.465Z,9.03
2023-01-11T09:42:40.904Z,8.99
2023-01-11T09:45:18.545Z,9.02
2023-01-11T09:47:48.790Z,9.04
2023-01-11T09:50:25.374Z,9.04
2023-01-11T09:53:03.191Z,9.01
2023-01-11T09:55:37.252Z,9.03
2023-01-11T09:58:32.284Z,9.04
2023-01-11T10:01:19.092Z,9.06
2023-01-11T10:04:24.332Z,9.06
2023-01-11T10:07:25.250Z,9.07
2023-01-11T10:18:32.760Z,9.05
2023-01-11T10:19:38.721Z,9.09
2023-01-11T10:22:23.403Z,9.13
2023-01-11T10:24:59.012Z,9.14
2023-01-11T10:27:29.838Z,9.10
2023-01-11T10:30:28.667Z,9.13
2023-01-11T10:33:10.905Z,9.15
2023-01-11T10:36:05.920Z,9.13
2023-01-11T10:38:43.491Z,9.12
2023-01-11T10:41:25.859Z,9.13
2023-01-11T10:44:02.644Z,9.13
2023-01-11T10:46:30.258Z,9.13
2023-01-11T10:49:21.196Z,9.12
2023-01-11T10:51:49.093Z,9.13
2023-01-11T10:54:18.236Z,9.16
2023-01-11T10:57:02.381Z,9.17
2023-01-11T10:59:31.024Z,9.15
2023-01-11T11:02:23.370Z,9.18
2023-01-11T11:04:57.267Z,9.23
2023-01-11T11:07:44.938Z,9.30
2023-01-11T11:10:32.839Z,9.34
2023-01-11T11:13:29.823Z,9.36
2023-01-11T11:16:10.362Z,9.34
2023-01-11T11:18:37.341Z,9.39
2023-01-11T11:21:16.306Z,9.42
2023-01-11T11:23:42.984Z,9.51
2023-01-11T11:26:09.749Z,9.54
2023-01-11T11:28:36.658Z,9.56
2023-01-11T11:31:05.267Z,9.62
2023-01-11T11:33:37.027Z,9.63
2023-01-11T11:36:14.177Z,9.68
2023-01-11T11:38:42.698Z,9.70
2023-01-11T11:41:13.045Z,9.73
2023-01-11T11:43:41.292Z,9.76
2023-01-11T11:46:18.940Z,9.79
2023-01-11T11:49:12.721Z,9.86
2023-01-11T11:51:39.888Z,9.89
2023-01-11T11:54:06.323Z,9.92
2023-01-11T11:56:41.665Z,9.91
2023-01-11T11:59:09.999Z,9.91
2023-01-11T12:01:39.843Z,9.93
2023-01-11T12:04:30.742Z,9.92
2023-01-11T12:07:27.271Z,9.94
2023-01-11T12:10:07.119Z,9.90
2023-01-11T12:12:36.325Z,9.91
2023-01-11T12:15:14.829Z,9.92
2023-01-11T12:17:42.028Z,9.91
2023-01-11T12:20:37.460Z,9.92
2023-01-11T12:23:21.488Z,9.87
2023-01-11T12:26:20.375Z,9.82
2023-01-11T12:29:08.592Z,9.81
2023-01-11T12:31:57.875Z,9.81
2023-01-11T12:34:38.298Z,9.83
2023-01-11T12:37:40.241Z,9.83
2023-01-11T12:40:19.897Z,9.81
2023-01-11T12:43:19.740Z,9.80
2023-01-11T12:46:02.890Z,9.81
2023-01-11T12:48:36.901Z,9.83
2023-01-11T12:51:29.096Z,9.82
2023-01-11T12:54:04.468Z,9.84
2023-01-11T12:56:42.831Z,9.85
2023-01-11T12:59:48.303Z,9.83
2023-01-11T13:02:34.544Z,9.83
2023-01-11T13:05:16.192Z,9.80
2023-01-11T13:07:52.183Z,9.80
2023-01-11T13:10:44.109Z,9.82
2023-01-11T13:13:42.277Z,9.83
2023-01-11T13:16:18.649Z,9.86
2023-01-11T13:19:01.174Z,9.87
2023-01-11T13:21:35.402Z,9.88
2023-01-11T13:24:14.888Z,9.89
2023-01-11T13:26:43.706Z,9.90
2023-01-11T13:29:40.159Z,9.90
2023-01-11T13:32:12.218Z,9.90
2023-01-11T13:34:47.260Z,9.91
2023-01-11T13:37:26.020Z,9.91
2023-01-11T13:40:07.816Z,9.93
2023-01-11T13:42:37.840Z,9.95
2023-01-11T13:45:14.510Z,9.89
2023-01-11T13:47:47.997Z,9.87
2023-01-11T13:50:32.519Z,9.85
2023-01-11T13:53:09.941Z,9.84
2023-01-11T13:55:39.373Z,9.86
2023-01-11T13:58:28.747Z,9.82
2023-01-11T14:01:00.814Z,9.80
2023-01-11T14:03:52.336Z,9.78
2023-01-11T14:06:31.189Z,9.72
2023-01-11T14:09:00.592Z,9.71
2023-01-11T14:11:45.911Z,9.69
2023-01-11T14:14:46.678Z,9.67
2023-01-11T14:17:40.004Z,9.63
2023-01-11T14:20:13.630Z,9.62
2023-01-11T14:23:13.318Z,9.63
2023-01-11T14:25:42.717Z,9.64
2023-01-11T14:28:13.923Z,9.65
2023-01-11T14:30:58.142Z,9.65
2023-01-11T14:33:53.991Z,9.63
2023-01-11T14:36:59.241Z,9.62
2023-01-11T14:39:50.579Z,9.61
2023-01-11T14:42:47.111Z,9.60
2023-01-11T14:45:35.305Z,9.59
2023-01-11T14:48:21.541Z,9.58
2023-01-11T14:50:57.828Z,9.58
2023-01-11T14:53:28.800Z,9.56
2023-01-11T14:55:55.356Z,9.56
2023-01-11T14:58:27.575Z,9.56
2023-01-11T15:00:53.949Z,9.58
2023-01-11T15:03:20.771Z,9.56
2023-01-11T15:06:13.417Z,9.54
2023-01-11T15:08:43.942Z,9.47
2023-01-11T15:11:31.052Z,9.42
2023-01-11T15:14:02.778Z,9.41
2023-01-11T15:16:49.717Z,9.38
2023-01-11T15:19:35.834Z,9.37
2023-01-11T15:22:03.956Z,9.33
2023-01-11T15:24:37.649Z,9.30
2023-01-11T15:27:04.388Z,9.28
2023-01-11T15:29:32.953Z,9.27
2023-01-11T15:32:02.456Z,9.23
2023-01-11T15:34:31.909Z,9.24
2023-01-11T15:37:02.153Z,9.22
2023-01-11T15:39:34.666Z,9.20
2023-01-11T15:42:17.777Z,9.15
2023-01-11T15:45:01.702Z,9.12
2023-01-11T15:47:52.522Z,9.09
2023-01-11T15:50:49.928Z,9.06
2023-01-11T15:53:49.184Z,9.10
2023-01-11T15:56:32.122Z,9.12
2023-01-11T15:59:19.971Z,9.10
2023-01-11T16:02:22.858Z,9.11
2023-01-11T16:04:56.641Z,9.09
